sensor_id;sensor_type;location;lat;lon;timestamp;pressure;altitude;pressure_sealevel;temperature;humidity
43745;BME280;29359;53.048;8.732;2024-01-15T00:01:53;99683.41;;;0.61;82.71
43745;BME280;29359;53.048;8.732;2024-01-15T00:03:54;99684.25;;;0.61;82.45
43745;BME280;29359;53.048;8.732;2024-01-15T00:05:56;99685.97;;;0.61;82.48
43745;BME280;29359;53.048;8.732;2024-01-15T00:07:58;99690.25;;;0.60;82.62
43745;BME280;29359;53.048;8.732;2024-01-15T00:10:00;99691.16;;;0.59;82.54
43745;BME280;29359;53.048;8.732;2024-01-15T00:12:02;99680.88;;;0.58;82.37
43745;BME280;29359;53.048;8.732;2024-01-15T00:14:04;99674.84;;;0.60;82.63
43745;BME280;29359;53.048;8.732;2024-01-15T00:16:06;99667.13;;;0.60;82.47
43745;BME280;29359;53.048;8.732;2024-01-15T00:18:07;99677.41;;;0.60;82.54
43745;BME280;29359;53.048;8.732;2024-01-15T00:20:10;99666.31;;;0.60;82.33
43745;BME280;29359;53.048;8.732;2024-01-15T00:22:12;99659.38;;;0.63;82.43
43745;BME280;29359;53.048;8.732;2024-01-15T00:24:13;99669.53;;;0.69;82.15
43745;BME280;29359;53.048;8.732;2024-01-15T00:26:15;99681.47;;;0.73;81.62
43745;BME280;29359;53.048;8.732;2024-01-15T00:28:17;99669.41;;;0.79;81.52
43745;BME280;29359;53.048;8.732;2024-01-15T00:30:19;99659.97;;;0.79;81.18
43745;BME280;29359;53.048;8.732;2024-01-15T00:32:21;99662.47;;;0.82;81.23
43745;BME280;29359;53.048;8.732;2024-01-15T00:34:23;99659.84;;;0.87;80.41
43745;BME280;29359;53.048;8.732;2024-01-15T00:36:25;99649.50;;;0.88;80.37
43745;BME280;29359;53.048;8.732;2024-01-15T00:38:27;99648.69;;;0.86;80.18
43745;BME280;29359;53.048;8.732;2024-01-15T00:40:29;99652.13;;;0.85;80.12
43745;BME280;29359;53.048;8.732;2024-01-15T00:42:30;99649.56;;;0.85;80.06
43745;BME280;29359;53.048;8.732;2024-01-15T00:44:32;99653.75;;;0.91;79.40
43745;BME280;29359;53.048;8.732;2024-01-15T00:46:42;99666.53;;;0.94;79.42
43745;BME280;29359;53.048;8.732;2024-01-15T00:48:45;99666.53;;;0.95;79.34
43745;BME280;29359;53.048;8.732;2024-01-15T00:50:47;99653.66;;;0.95;79.53
43745;BME280;29359;53.048;8.732;2024-01-15T00:52:48;99657.94;;;0.96;79.70
43745;BME280;29359;53.048;8.732;2024-01-15T00:54:50;99650.25;;;0.95;79.67
43745;BME280;29359;53.048;8.732;2024-01-15T00:56:52;99645.16;;;0.92;79.72
43745;BME280;29359;53.048;8.732;2024-01-15T00:58:54;99652.00;;;0.93;80.01
43745;BME280;29359;53.048;8.732;2024-01-15T01:00:56;99644.28;;;0.94;80.05
43745;BME280;29359;53.048;8.732;2024-01-15T01:02:58;99643.41;;;0.94;80.09
43745;BME280;29359;53.048;8.732;2024-01-15T01:04:59;99636.53;;;0.96;80.16
43745;BME280;29359;53.048;8.732;2024-01-15T01:07:01;99633.13;;;0.94;80.24
43745;BME280;29359;53.048;8.732;2024-01-15T01:09:03;99638.28;;;0.92;80.50
43745;BME280;29359;53.048;8.732;2024-01-15T01:11:05;99634.88;;;0.92;80.75
43745;BME280;29359;53.048;8.732;2024-01-15T01:13:09;99626.31;;;0.91;80.90
43745;BME280;29359;53.048;8.732;2024-01-15T01:15:11;99610.84;;;0.93;80.94
43745;BME280;29359;53.048;8.732;2024-01-15T01:17:12;99616.00;;;0.94;80.71
43745;BME280;29359;53.048;8.732;2024-01-15T01:19:14;99616.00;;;0.93;80.87
43745;BME280;29359;53.048;8.732;2024-01-15T01:21:16;99610.84;;;0.93;81.03
43745;BME280;29359;53.048;8.732;2024-01-15T01:23:18;99603.16;;;0.93;80.99
43745;BME280;29359;53.048;8.732;2024-01-15T01:25:20;99605.72;;;0.93;81.11
43745;BME280;29359;53.048;8.732;2024-01-15T01:27:22;99606.56;;;0.93;81.15
43745;BME280;29359;53.048;8.732;2024-01-15T01:29:24;99608.28;;;0.93;81.13
43745;BME280;29359;53.048;8.732;2024-01-15T01:31:25;99609.13;;;0.93;81.26
43745;BME280;29359;53.048;8.732;2024-01-15T01:33:27;99627.16;;;0.92;81.25
43745;BME280;29359;53.048;8.732;2024-01-15T01:35:29;99618.63;;;0.91;81.59
43745;BME280;29359;53.048;8.732;2024-01-15T01:37:31;99622.13;;;0.86;81.53
43745;BME280;29359;53.048;8.732;2024-01-15T01:39:33;99614.50;;;0.83;81.89
43745;BME280;29359;53.048;8.732;2024-01-15T01:41:35;99607.69;;;0.80;82.23
43745;BME280;29359;53.048;8.732;2024-01-15T01:43:37;99612.88;;;0.79;82.62
43745;BME280;29359;53.048;8.732;2024-01-15T01:45:39;99603.47;;;0.76;82.75
43745;BME280;29359;53.048;8.732;2024-01-15T01:47:41;99607.88;;;0.69;82.78
43745;BME280;29359;53.048;8.732;2024-01-15T01:49:43;99613.13;;;0.63;83.36
43745;BME280;29359;53.048;8.732;2024-01-15T01:51:46;99614.97;;;0.57;83.48
43745;BME280;29359;53.048;8.732;2024-01-15T01:53:49;99613.28;;;0.54;83.86
43745;BME280;29359;53.048;8.732;2024-01-15T01:55:53;99609.09;;;0.48;83.82
43745;BME280;29359;53.048;8.732;2024-01-15T01:57:55;99611.78;;;0.42;84.23
43745;BME280;29359;53.048;8.732;2024-01-15T01:59:57;99612.69;;;0.40;84.35
43745;BME280;29359;53.048;8.732;2024-01-15T02:02:00;99604.13;;;0.39;84.71
43745;BME280;29359;53.048;8.732;2024-01-15T02:04:03;99605.78;;;0.42;84.76
43745;BME280;29359;53.048;8.732;2024-01-15T02:06:06;99599.75;;;0.43;85.09
43745;BME280;29359;53.048;8.732;2024-01-15T02:08:08;99598.00;;;0.46;84.90
43745;BME280;29359;53.048;8.732;2024-01-15T02:10:10;99599.72;;;0.46;85.03
43745;BME280;29359;53.048;8.732;2024-01-15T02:12:12;99609.13;;;0.47;85.38
43745;BME280;29359;53.048;8.732;2024-01-15T02:14:14;99607.38;;;0.49;85.19
43745;BME280;29359;53.048;8.732;2024-01-15T02:16:16;99593.66;;;0.52;85.20
43745;BME280;29359;53.048;8.732;2024-01-15T02:18:19;99596.13;;;0.56;85.19
43745;BME280;29359;53.048;8.732;2024-01-15T02:20:21;99591.00;;;0.56;85.34
43745;BME280;29359;53.048;8.732;2024-01-15T02:22:23;99592.63;;;0.60;85.49
43745;BME280;29359;53.048;8.732;2024-01-15T02:24:25;99589.09;;;0.66;85.13
43745;BME280;29359;53.048;8.732;2024-01-15T02:26:27;99590.72;;;0.70;85.16
43745;BME280;29359;53.048;8.732;2024-01-15T02:28:30;99579.56;;;0.72;85.14
43745;BME280;29359;53.048;8.732;2024-01-15T02:30:32;99582.13;;;0.72;85.37
43745;BME280;29359;53.048;8.732;2024-01-15T02:32:34;99579.56;;;0.72;85.06
43745;BME280;29359;53.048;8.732;2024-01-15T02:34:36;99583.81;;;0.73;85.13
43745;BME280;29359;53.048;8.732;2024-01-15T02:36:38;99575.22;;;0.74;84.99
43745;BME280;29359;53.048;8.732;2024-01-15T02:38:41;99582.91;;;0.76;85.07
43745;BME280;29359;53.048;8.732;2024-01-15T02:40:45;99578.63;;;0.77;85.22
43745;BME280;29359;53.048;8.732;2024-01-15T02:42:47;99576.00;;;0.80;84.81
43745;BME280;29359;53.048;8.732;2024-01-15T02:44:48;99574.28;;;0.80;84.80
43745;BME280;29359;53.048;8.732;2024-01-15T02:46:50;99586.22;;;0.83;84.72
43745;BME280;29359;53.048;8.732;2024-01-15T02:48:52;99590.47;;;0.84;84.79
43745;BME280;29359;53.048;8.732;2024-01-15T02:50:54;99584.50;;;0.83;84.54
43745;BME280;29359;53.048;8.732;2024-01-15T02:52:56;99593.91;;;0.84;84.97
43745;BME280;29359;53.048;8.732;2024-01-15T02:54:57;99581.03;;;0.84;84.79
43745;BME280;29359;53.048;8.732;2024-01-15T02:56:59;99597.31;;;0.85;84.65
43745;BME280;29359;53.048;8.732;2024-01-15T02:59:01;99607.59;;;0.85;84.77
43745;BME280;29359;53.048;8.732;2024-01-15T03:01:03;99599.03;;;0.84;84.57
43745;BME280;29359;53.048;8.732;2024-01-15T03:03:05;99587.88;;;0.85;84.35
43745;BME280;29359;53.048;8.732;2024-01-15T03:05:07;99598.94;;;0.89;84.32
43745;BME280;29359;53.048;8.732;2024-01-15T03:07:09;99581.00;;;0.87;84.15
43745;BME280;29359;53.048;8.732;2024-01-15T03:09:11;99587.00;;;0.86;84.19
43745;BME280;29359;53.048;8.732;2024-01-15T03:11:12;99587.06;;;0.82;84.43
43745;BME280;29359;53.048;8.732;2024-01-15T03:13:14;99600.84;;;0.79;84.63
43745;BME280;29359;53.048;8.732;2024-01-15T03:15:16;99596.66;;;0.75;84.36
43745;BME280;29359;53.048;8.732;2024-01-15T03:17:20;99595.81;;;0.73;84.48
43745;BME280;29359;53.048;8.732;2024-01-15T03:19:21;99596.66;;;0.73;84.52
43745;BME280;29359;53.048;8.732;2024-01-15T03:21:23;99600.06;;;0.76;84.53
43745;BME280;29359;53.048;8.732;2024-01-15T03:23:25;99596.56;;;0.78;84.77
43745;BME280;29359;53.048;8.732;2024-01-15T03:25:27;99599.94;;;0.82;84.52
43745;BME280;29359;53.048;8.732;2024-01-15T03:27:29;99592.22;;;0.83;84.17
43745;BME280;29359;53.048;8.732;2024-01-15T03:29:31;99607.59;;;0.85;84.36
43745;BME280;29359;53.048;8.732;2024-01-15T03:31:32;99604.09;;;0.89;84.27
43745;BME280;29359;53.048;8.732;2024-01-15T03:33:34;99600.72;;;0.87;84.35
43745;BME280;29359;53.048;8.732;2024-01-15T03:35:36;99599.88;;;0.85;84.55
43745;BME280;29359;53.048;8.732;2024-01-15T03:37:38;99599.84;;;0.86;84.51
43745;BME280;29359;53.048;8.732;2024-01-15T03:39:40;99594.75;;;0.85;84.36
43745;BME280;29359;53.048;8.732;2024-01-15T03:41:42;99594.78;;;0.82;84.28
43745;BME280;29359;53.048;8.732;2024-01-15T03:43:43;99599.06;;;0.83;84.39
43745;BME280;29359;53.048;8.732;2024-01-15T03:45:45;99588.81;;;0.81;84.13
43745;BME280;29359;53.048;8.732;2024-01-15T03:47:47;99583.72;;;0.80;84.25
43745;BME280;29359;53.048;8.732;2024-01-15T03:49:49;99579.41;;;0.80;83.99
43745;BME280;29359;53.048;8.732;2024-01-15T03:51:51;99574.31;;;0.79;84.24
43745;BME280;29359;53.048;8.732;2024-01-15T03:53:53;99583.72;;;0.80;83.99
43745;BME280;29359;53.048;8.732;2024-01-15T03:55:54;99580.25;;;0.81;84.11
43745;BME280;29359;53.048;8.732;2024-01-15T03:57:56;99583.72;;;0.80;83.98
43745;BME280;29359;53.048;8.732;2024-01-15T03:59:58;99582.81;;;0.81;84.18
43745;BME280;29359;53.048;8.732;2024-01-15T04:02:00;99587.97;;;0.81;84.20
43745;BME280;29359;53.048;8.732;2024-01-15T04:04:02;99588.81;;;0.81;84.31
43745;BME280;29359;53.048;8.732;2024-01-15T04:06:04;99593.91;;;0.84;84.19
43745;BME280;29359;53.048;8.732;2024-01-15T04:08:06;99600.75;;;0.84;84.29
43745;BME280;29359;53.048;8.732;2024-01-15T04:10:08;99592.16;;;0.85;84.30
43745;BME280;29359;53.048;8.732;2024-01-15T04:12:10;99592.97;;;0.88;84.04
43745;BME280;29359;53.048;8.732;2024-01-15T04:14:12;99590.44;;;0.85;84.21
43745;BME280;29359;53.048;8.732;2024-01-15T04:16:14;99597.25;;;0.88;84.00
43745;BME280;29359;53.048;8.732;2024-01-15T04:18:16;99608.34;;;0.91;84.25
43745;BME280;29359;53.048;8.732;2024-01-15T04:20:19;99616.88;;;0.92;84.21
43745;BME280;29359;53.048;8.732;2024-01-15T04:22:26;99632.25;;;0.95;84.19
43745;BME280;29359;53.048;8.732;2024-01-15T04:24:28;99615.09;;;0.95;84.15
43745;BME280;29359;53.048;8.732;2024-01-15T04:26:30;99615.94;;;0.96;84.01
43745;BME280;29359;53.048;8.732;2024-01-15T04:28:32;99602.19;;;0.98;83.79
43745;BME280;29359;53.048;8.732;2024-01-15T04:30:33;99612.44;;;1.00;83.66
43745;BME280;29359;53.048;8.732;2024-01-15T04:32:35;99608.94;;;1.04;83.63
43745;BME280;29359;53.048;8.732;2024-01-15T04:34:37;99614.03;;;1.06;83.66
43745;BME280;29359;53.048;8.732;2024-01-15T04:36:40;99611.44;;;1.07;83.40
43745;BME280;29359;53.048;8.732;2024-01-15T04:38:43;99619.97;;;1.09;83.32
43745;BME280;29359;53.048;8.732;2024-01-15T04:40:44;99620.75;;;1.13;83.13
43745;BME280;29359;53.048;8.732;2024-01-15T04:42:46;99603.59;;;1.13;83.23
43745;BME280;29359;53.048;8.732;2024-01-15T04:44:48;99604.50;;;1.12;82.98
43745;BME280;29359;53.048;8.732;2024-01-15T04:46:50;99597.66;;;1.11;83.13
43745;BME280;29359;53.048;8.732;2024-01-15T04:48:52;99587.38;;;1.10;83.09
43745;BME280;29359;53.048;8.732;2024-01-15T04:50:53;99606.28;;;1.09;83.23
43745;BME280;29359;53.048;8.732;2024-01-15T04:52:55;99604.63;;;1.06;83.56
43745;BME280;29359;53.048;8.732;2024-01-15T04:54:57;99605.47;;;1.07;83.35
43745;BME280;29359;53.048;8.732;2024-01-15T04:56:59;99594.34;;;1.05;83.36
43745;BME280;29359;53.048;8.732;2024-01-15T04:59:00;99597.84;;;1.01;83.60
43745;BME280;29359;53.048;8.732;2024-01-15T05:01:03;99591.03;;;1.00;83.58
43745;BME280;29359;53.048;8.732;2024-01-15T05:03:05;99589.41;;;0.94;83.53
43745;BME280;29359;53.048;8.732;2024-01-15T05:05:07;99587.72;;;0.94;83.65
43745;BME280;29359;53.048;8.732;2024-01-15T05:07:09;99591.19;;;0.90;83.69
43745;BME280;29359;53.048;8.732;2024-01-15T05:09:11;99588.59;;;0.92;83.94
43745;BME280;29359;53.048;8.732;2024-01-15T05:11:13;99586.94;;;0.91;83.71
43745;BME280;29359;53.048;8.732;2024-01-15T05:13:15;99591.19;;;0.90;83.73
43745;BME280;29359;53.048;8.732;2024-01-15T05:15:16;99587.81;;;0.88;83.96
43745;BME280;29359;53.048;8.732;2024-01-15T05:17:18;99584.47;;;0.85;83.85
43745;BME280;29359;53.048;8.732;2024-01-15T05:19:20;99593.00;;;0.85;84.08
43745;BME280;29359;53.048;8.732;2024-01-15T05:21:22;99588.75;;;0.84;84.16
43745;BME280;29359;53.048;8.732;2024-01-15T05:23:24;99603.34;;;0.84;84.19
43745;BME280;29359;53.048;8.732;2024-01-15T05:25:26;99593.06;;;0.82;84.04
43745;BME280;29359;53.048;8.732;2024-01-15T05:27:27;99587.03;;;0.85;84.13
43745;BME280;29359;53.048;8.732;2024-01-15T05:29:29;99585.34;;;0.82;84.43
43745;BME280;29359;53.048;8.732;2024-01-15T05:31:31;99588.84;;;0.80;84.62
43745;BME280;29359;53.048;8.732;2024-01-15T05:33:33;99585.44;;;0.78;84.44
43745;BME280;29359;53.048;8.732;2024-01-15T05:35:35;99579.50;;;0.76;84.70
43745;BME280;29359;53.048;8.732;2024-01-15T05:37:37;99585.50;;;0.74;84.39
43745;BME280;29359;53.048;8.732;2024-01-15T05:39:38;99578.63;;;0.77;84.77
43745;BME280;29359;53.048;8.732;2024-01-15T05:41:40;99574.38;;;0.76;84.82
43745;BME280;29359;53.048;8.732;2024-01-15T05:43:42;99575.22;;;0.74;84.81
43745;BME280;29359;53.048;8.732;2024-01-15T05:45:44;99580.41;;;0.73;84.78
43745;BME280;29359;53.048;8.732;2024-01-15T05:47:46;99574.44;;;0.71;84.87
43745;BME280;29359;53.048;8.732;2024-01-15T05:49:48;99578.72;;;0.70;84.91
43745;BME280;29359;53.048;8.732;2024-01-15T05:51:50;99579.56;;;0.72;84.89
43745;BME280;29359;53.048;8.732;2024-01-15T05:53:52;99576.16;;;0.70;84.90
43745;BME280;29359;53.048;8.732;2024-01-15T05:55:54;99584.78;;;0.68;85.00
43745;BME280;29359;53.048;8.732;2024-01-15T05:57:57;99584.75;;;0.69;84.97
43745;BME280;29359;53.048;8.732;2024-01-15T05:59:59;99588.19;;;0.68;84.89
43745;BME280;29359;53.048;8.732;2024-01-15T06:02:01;99590.72;;;0.71;85.12
43745;BME280;29359;53.048;8.732;2024-01-15T06:04:03;99593.25;;;0.73;85.14
43745;BME280;29359;53.048;8.732;2024-01-15T06:06:06;99592.34;;;0.76;85.19
43745;BME280;29359;53.048;8.732;2024-01-15T06:08:08;99583.75;;;0.77;85.00
43745;BME280;29359;53.048;8.732;2024-01-15T06:10:10;99592.31;;;0.79;84.97
43745;BME280;29359;53.048;8.732;2024-01-15T06:12:11;99582.88;;;0.79;84.72
43745;BME280;29359;53.048;8.732;2024-01-15T06:14:14;99584.56;;;0.80;84.68
43745;BME280;29359;53.048;8.732;2024-01-15T06:16:16;99589.72;;;0.79;84.86
43745;BME280;29359;53.048;8.732;2024-01-15T06:18:18;99585.44;;;0.78;84.89
43745;BME280;29359;53.048;8.732;2024-01-15T06:20:20;99582.88;;;0.79;84.79
43745;BME280;29359;53.048;8.732;2024-01-15T06:22:22;99583.72;;;0.78;84.68
43745;BME280;29359;53.048;8.732;2024-01-15T06:24:24;99585.50;;;0.76;84.59
43745;BME280;29359;53.048;8.732;2024-01-15T06:26:26;99583.75;;;0.77;84.87
43745;BME280;29359;53.048;8.732;2024-01-15T06:28:28;99586.38;;;0.75;84.84
43745;BME280;29359;53.048;8.732;2024-01-15T06:30:29;99576.94;;;0.76;84.75
43745;BME280;29359;53.048;8.732;2024-01-15T06:32:32;99576.09;;;0.75;84.97
43745;BME280;29359;53.048;8.732;2024-01-15T06:34:33;99576.09;;;0.75;85.08
43745;BME280;29359;53.048;8.732;2024-01-15T06:36:35;99586.38;;;0.75;84.99
43745;BME280;29359;53.048;8.732;2024-01-15T06:38:37;99593.19;;;0.76;84.80
43745;BME280;29359;53.048;8.732;2024-01-15T06:40:39;99588.91;;;0.77;84.91
43745;BME280;29359;53.048;8.732;2024-01-15T06:42:47;99583.75;;;0.77;84.75
43745;BME280;29359;53.048;8.732;2024-01-15T06:44:49;99586.38;;;0.73;84.75
43745;BME280;29359;53.048;8.732;2024-01-15T06:46:51;99588.94;;;0.75;85.01
43745;BME280;29359;53.048;8.732;2024-01-15T06:48:53;99592.34;;;0.74;84.95
43745;BME280;29359;53.048;8.732;2024-01-15T06:50:55;99596.66;;;0.75;84.73
43745;BME280;29359;53.048;8.732;2024-01-15T06:52:57;99599.22;;;0.75;84.97
43745;BME280;29359;53.048;8.732;2024-01-15T06:54:58;99611.19;;;0.76;84.55
43745;BME280;29359;53.048;8.732;2024-01-15T06:57:00;99618.84;;;0.78;84.55
43745;BME280;29359;53.048;8.732;2024-01-15T06:59:02;99612.91;;;0.76;84.70
43745;BME280;29359;53.048;8.732;2024-01-15T07:01:04;99619.88;;;0.69;84.56
43745;BME280;29359;53.048;8.732;2024-01-15T07:03:07;99620.84;;;0.62;84.57
43745;BME280;29359;53.048;8.732;2024-01-15T07:05:09;99624.44;;;0.53;84.59
43745;BME280;29359;53.048;8.732;2024-01-15T07:07:11;99632.31;;;0.42;84.77
43745;BME280;29359;53.048;8.732;2024-01-15T07:09:13;99624.81;;;0.32;85.06
43745;BME280;29359;53.048;8.732;2024-01-15T07:11:15;99624.91;;;0.26;85.17
43745;BME280;29359;53.048;8.732;2024-01-15T07:13:17;99625.81;;;0.21;85.45
43745;BME280;29359;53.048;8.732;2024-01-15T07:15:19;99614.75;;;0.18;85.39
43745;BME280;29359;53.048;8.732;2024-01-15T07:17:21;99636.13;;;0.20;85.54
43745;BME280;29359;53.048;8.732;2024-01-15T07:19:22;99624.09;;;0.22;85.82
43745;BME280;29359;53.048;8.732;2024-01-15T07:21:24;99612.94;;;0.23;85.75
43745;BME280;29359;53.048;8.732;2024-01-15T07:23:26;99609.53;;;0.24;85.75
43745;BME280;29359;53.048;8.732;2024-01-15T07:25:31;99626.53;;;0.30;86.15
43745;BME280;29359;53.048;8.732;2024-01-15T07:27:33;99624.84;;;0.29;86.12
43745;BME280;29359;53.048;8.732;2024-01-15T07:29:35;99632.50;;;0.32;86.25
43745;BME280;29359;53.048;8.732;2024-01-15T07:31:40;99628.22;;;0.32;86.19
43745;BME280;29359;53.048;8.732;2024-01-15T07:33:42;99637.63;;;0.33;86.28
43745;BME280;29359;53.048;8.732;2024-01-15T07:35:44;99631.59;;;0.34;86.23
43745;BME280;29359;53.048;8.732;2024-01-15T07:37:45;99622.16;;;0.35;86.10
43745;BME280;29359;53.048;8.732;2024-01-15T07:39:47;99621.28;;;0.37;86.16
43745;BME280;29359;53.048;8.732;2024-01-15T07:41:50;99617.00;;;0.38;86.48
43745;BME280;29359;53.048;8.732;2024-01-15T07:43:51;99616.94;;;0.41;86.38
43745;BME280;29359;53.048;8.732;2024-01-15T07:45:53;99620.38;;;0.40;86.38
43745;BME280;29359;53.048;8.732;2024-01-15T07:47:55;99623.72;;;0.45;85.98
43745;BME280;29359;53.048;8.732;2024-01-15T07:49:57;99620.31;;;0.44;86.05
43745;BME280;29359;53.048;8.732;2024-01-15T07:52:05;99625.41;;;0.46;86.06
43745;BME280;29359;53.048;8.732;2024-01-15T07:54:07;99620.28;;;0.46;86.04
43745;BME280;29359;53.048;8.732;2024-01-15T07:56:09;99627.09;;;0.47;86.21
43745;BME280;29359;53.048;8.732;2024-01-15T07:58:11;99627.09;;;0.48;85.92
43745;BME280;29359;53.048;8.732;2024-01-15T08:00:17;99625.41;;;0.46;85.97
43745;BME280;29359;53.048;8.732;2024-01-15T08:02:19;99639.13;;;0.45;85.98
43745;BME280;29359;53.048;8.732;2024-01-15T08:04:21;99635.69;;;0.47;85.77
43745;BME280;29359;53.048;8.732;2024-01-15T08:06:23;99631.34;;;0.49;85.71
43745;BME280;29359;53.048;8.732;2024-01-15T08:08:26;99636.53;;;0.48;85.27
43745;BME280;29359;53.048;8.732;2024-01-15T08:10:28;99631.38;;;0.48;85.37
43745;BME280;29359;53.048;8.732;2024-01-15T08:12:30;99636.53;;;0.48;85.28
43745;BME280;29359;53.048;8.732;2024-01-15T08:14:32;99628.81;;;0.48;84.80
43745;BME280;29359;53.048;8.732;2024-01-15T08:16:34;99629.66;;;0.47;84.87
43745;BME280;29359;53.048;8.732;2024-01-15T08:18:35;99636.53;;;0.48;84.83
43745;BME280;29359;53.048;8.732;2024-01-15T08:20:38;99638.22;;;0.49;84.58
43745;BME280;29359;53.048;8.732;2024-01-15T08:22:40;99628.81;;;0.46;84.35
43745;BME280;29359;53.048;8.732;2024-01-15T08:24:41;99628.81;;;0.46;84.51
43745;BME280;29359;53.048;8.732;2024-01-15T08:26:43;99628.81;;;0.48;84.67
43745;BME280;29359;53.048;8.732;2024-01-15T08:28:45;99627.09;;;0.47;84.66
43745;BME280;29359;53.048;8.732;2024-01-15T08:30:47;99631.38;;;0.46;84.73
43745;BME280;29359;53.048;8.732;2024-01-15T08:32:49;99627.97;;;0.47;84.69
43745;BME280;29359;53.048;8.732;2024-01-15T08:34:50;99630.50;;;0.49;84.61
43745;BME280;29359;53.048;8.732;2024-01-15T08:36:53;99627.94;;;0.49;84.59
43745;BME280;29359;53.048;8.732;2024-01-15T08:38:55;99635.63;;;0.49;84.54
43745;BME280;29359;53.048;8.732;2024-01-15T08:40:57;99635.63;;;0.49;84.40
43745;BME280;29359;53.048;8.732;2024-01-15T08:43:01;99636.44;;;0.51;84.29
43745;BME280;29359;53.048;8.732;2024-01-15T08:45:04;99641.59;;;0.51;84.65
43745;BME280;29359;53.048;8.732;2024-01-15T08:47:06;99645.88;;;0.52;84.44
43745;BME280;29359;53.048;8.732;2024-01-15T08:49:07;99648.41;;;0.55;84.48
43745;BME280;29359;53.048;8.732;2024-01-15T08:51:10;99657.78;;;0.55;84.58
43745;BME280;29359;53.048;8.732;2024-01-15T08:53:12;99661.16;;;0.58;84.36
43745;BME280;29359;53.048;8.732;2024-01-15T08:55:14;99649.19;;;0.57;84.53
43745;BME280;29359;53.048;8.732;2024-01-15T08:57:16;99650.00;;;0.61;84.38
43745;BME280;29359;53.048;8.732;2024-01-15T08:59:18;99644.00;;;0.60;84.30
43745;BME280;29359;53.048;8.732;2024-01-15T09:01:26;99647.44;;;0.61;84.11
43745;BME280;29359;53.048;8.732;2024-01-15T09:03:28;99653.41;;;0.61;84.11
43745;BME280;29359;53.048;8.732;2024-01-15T09:05:30;99655.09;;;0.64;84.30
43745;BME280;29359;53.048;8.732;2024-01-15T09:07:32;99654.16;;;0.66;84.21
43745;BME280;29359;53.048;8.732;2024-01-15T09:09:34;99653.31;;;0.67;84.06
43745;BME280;29359;53.048;8.732;2024-01-15T09:11:36;99653.25;;;0.72;83.80
43745;BME280;29359;53.048;8.732;2024-01-15T09:13:38;99648.94;;;0.72;83.78
43745;BME280;29359;53.048;8.732;2024-01-15T09:15:44;99652.41;;;0.71;83.85
43745;BME280;29359;53.048;8.732;2024-01-15T09:17:46;99657.44;;;0.74;83.84
43745;BME280;29359;53.048;8.732;2024-01-15T09:19:48;99650.59;;;0.77;83.56
43745;BME280;29359;53.048;8.732;2024-01-15T09:21:50;99651.41;;;0.79;83.81
43745;BME280;29359;53.048;8.732;2024-01-15T09:23:52;99651.41;;;0.79;83.41
43745;BME280;29359;53.048;8.732;2024-01-15T09:25:54;99653.09;;;0.80;83.34
43745;BME280;29359;53.048;8.732;2024-01-15T09:27:56;99656.47;;;0.83;83.27
43745;BME280;29359;53.048;8.732;2024-01-15T09:29:58;99658.16;;;0.84;83.54
43745;BME280;29359;53.048;8.732;2024-01-15T09:32:00;99649.50;;;0.88;83.60
43745;BME280;29359;53.048;8.732;2024-01-15T09:34:04;99652.03;;;0.91;83.59
43745;BME280;29359;53.048;8.732;2024-01-15T09:36:06;99658.78;;;0.97;83.57
43745;BME280;29359;53.048;8.732;2024-01-15T09:38:09;99672.38;;;1.02;83.81
43745;BME280;29359;53.048;8.732;2024-01-15T09:40:14;99663.78;;;1.05;83.50
43745;BME280;29359;53.048;8.732;2024-01-15T09:42:19;99665.50;;;1.04;83.23
43745;BME280;29359;53.048;8.732;2024-01-15T09:44:22;99657.84;;;1.01;83.21
43745;BME280;29359;53.048;8.732;2024-01-15T09:46:24;99656.19;;;0.98;83.11
43745;BME280;29359;53.048;8.732;2024-01-15T09:48:26;99656.19;;;0.97;83.27
43745;BME280;29359;53.048;8.732;2024-01-15T09:50:28;99670.78;;;0.96;83.23
43745;BME280;29359;53.048;8.732;2024-01-15T09:52:30;99660.53;;;0.95;83.23
43745;BME280;29359;53.048;8.732;2024-01-15T09:54:33;99669.06;;;0.98;83.32
43745;BME280;29359;53.048;8.732;2024-01-15T09:56:35;99663.03;;;0.98;83.45
43745;BME280;29359;53.048;8.732;2024-01-15T09:58:37;99666.47;;;0.98;83.47
43745;BME280;29359;53.048;8.732;2024-01-15T10:00:40;99660.56;;;0.93;83.46
43745;BME280;29359;53.048;8.732;2024-01-15T10:02:45;99670.00;;;0.93;83.64
43745;BME280;29359;53.048;8.732;2024-01-15T10:04:47;99652.00;;;0.94;83.67
43745;BME280;29359;53.048;8.732;2024-01-15T10:06:51;99665.59;;;0.98;83.57
43745;BME280;29359;53.048;8.732;2024-01-15T10:08:54;99664.75;;;0.97;83.72
43745;BME280;29359;53.048;8.732;2024-01-15T10:10:58;99663.06;;;0.96;83.38
43745;BME280;29359;53.048;8.732;2024-01-15T10:12:59;99665.59;;;0.98;83.51
43745;BME280;29359;53.048;8.732;2024-01-15T10:15:01;99670.69;;;1.03;83.09
43745;BME280;29359;53.048;8.732;2024-01-15T10:17:13;99660.34;;;1.04;83.43
43745;BME280;29359;53.048;8.732;2024-01-15T10:19:16;99662.88;;;1.06;83.36
43745;BME280;29359;53.048;8.732;2024-01-15T10:21:18;99656.84;;;1.08;83.52
43745;BME280;29359;53.048;8.732;2024-01-15T10:23:20;99659.44;;;1.08;83.49
43745;BME280;29359;53.048;8.732;2024-01-15T10:25:22;99662.88;;;1.07;83.29
43745;BME280;29359;53.048;8.732;2024-01-15T10:27:27;99672.31;;;1.07;83.45
43745;BME280;29359;53.048;8.732;2024-01-15T10:29:29;99667.25;;;1.02;83.78
43745;BME280;29359;53.048;8.732;2024-01-15T10:31:31;99669.06;;;0.98;83.80
43745;BME280;29359;53.048;8.732;2024-01-15T10:33:33;99669.88;;;0.99;83.85
43745;BME280;29359;53.048;8.732;2024-01-15T10:35:35;99675.03;;;0.99;84.04
43745;BME280;29359;53.048;8.732;2024-01-15T10:37:37;99665.59;;;0.98;83.64
43745;BME280;29359;53.048;8.732;2024-01-15T10:39:39;99665.69;;;0.95;83.76
43745;BME280;29359;53.048;8.732;2024-01-15T10:41:41;99666.47;;;0.98;83.73
43745;BME280;29359;53.048;8.732;2024-01-15T10:43:43;99669.06;;;0.98;83.76
43745;BME280;29359;53.048;8.732;2024-01-15T10:45:47;99658.81;;;0.95;83.46
43745;BME280;29359;53.048;8.732;2024-01-15T10:47:50;99658.06;;;0.89;83.65
43745;BME280;29359;53.048;8.732;2024-01-15T10:49:52;99652.97;;;0.86;83.49
43745;BME280;29359;53.048;8.732;2024-01-15T10:51:56;99648.81;;;0.80;83.95
43745;BME280;29359;53.048;8.732;2024-01-15T10:53:59;99651.41;;;0.79;84.01
43745;BME280;29359;53.048;8.732;2024-01-15T10:56:01;99651.41;;;0.77;84.00